메인 페이지
METAR-TAF:

METAR-TAF

공항 :

Groton / 뉴런던, 코네티컷, 미국

위도: 41-19-39N, 경도: 072-02-58W, 고도: 3m

현재 날씨관측

예보는 50분 전, 17:56시(UTC)에 발표되었습니다.
북북동13kt, 순간 최대 풍속 21kt
온도 11°C
습도 62%
기압 1016 hPa
시정: 16.1km
고도 2600ft 상공 구름 보통

METAR: KGON 041756Z 03013G21KT 10SM SCT026 11/04 A3000 RMK AO2 SLP157 T01060039 10106 20061 58002

시각: 14:46 (18:46 UTC)

예보

예보는 41분 전, 18:05시(UTC)에 발표되었습니다.
예보 대상 시간: 04일 18시부터 05일 18시까지 (UTC)
북북동15kt, 순간 최대 풍속 21kt
시정: 10km
고도 2500ft 상공 구름 보통
고도 3500ft 상공 구름 보통
04일 2000시부터 (UTC)
북동10kt
시정: 10km
고도 4000ft 상공 구름 보통
05일 0000시부터 (UTC)
5kt
시정: 10km
고도 3500ft 상공 구름 많음
05일 0700시부터 (UTC)
남남서4kt
시정: 10km
고도 2500ft 상공 구름 많음
05일 1000시부터 (UTC)
남남서4kt
시정: 10km
고도 1500ft 상공 구름 많음
고도 2500ft 상공 구름 많음
05일 1400시부터 (UTC)
6kt
시정: 10km
고도 1500ft 상공 구름 많음
고도 2500ft 상공 구름 많음

TAF: KGON 041805Z 0418/0518 02015G21KT P6SM SCT025 SCT035 FM042000 05010KT P6SM SCT040 FM050000 09005KT P6SM BKN035 FM050700 20004KT P6SM BKN025 FM051000 20004KT P6SM BKN015 BKN025 FM051400 19006KT P6SM BKN015 BKN025

4,000개 이상의 공항 관측 자료 및 예보 (METAR 및 TAF 보고).

지도상에서 검색 가능한 기상관측소가 노란 점과 빨간 점으로 표시되어 있습니다.

기상관측소 명을 보려면 표시 위로 마우스를 이동하세요.

날씨 관측과 예보를 보려면 클릭하세요.

지도 변경 : 확대하려면 엑스 표시가 있는 녹색 버튼, 축소하려면 빼기 표시가 있는 녹색 버튼, 다음 페이지의 지도를 보려면 녹색 화살표를 클릭하세요.


METAR-TAF: